Time;durP1;ratioP1;P1;durP2;ratioP2;P2;SDS_P1;SDS_P2;PMS_P1;PMS_P2;Temp;Humidity;BMP_temperature;BMP_pressure;BME280_temperature;BME280_humidity;BME280_pressure;Samples;Min_cycle;Max_cycle;Signal;HPM_P1;HPM_P2
2022/08/28 00:01:46;;;;;;;;;;;;;;;19.07;100.00;97248.72;5033343;28;19916;-75
2022/08/28 00:04:11;;;;;;;;;;;;;;;18.98;100.00;97255.06;5049923;28;19913;-76
2022/08/28 00:06:36;;;;;;;;;;;;;;;18.94;100.00;97263.50;5053087;28;19948;-76
2022/08/28 00:09:02;;;;;;;;;;;;;;;18.97;100.00;97261.47;5038547;28;19927;-76
2022/08/28 00:11:28;;;;;;;;;;;;;;;18.95;100.00;97259.75;5037913;28;19921;-76
2022/08/28 00:13:53;;;;;;;;;;;;;;;18.90;100.00;97261.22;5039724;28;19905;-77
2022/08/28 00:16:18;;;;;;;;;;;;;;;18.93;100.00;97260.91;5039706;28;19935;-76
2022/08/28 00:18:44;;;;;;;;;;;;;;;18.79;100.00;97267.75;5039813;28;19948;-76
2022/08/28 00:21:09;;;;;;;;;;;;;;;18.73;100.00;97260.22;5037988;28;19913;-76
2022/08/28 00:23:35;;;;;;;;;;;;;;;18.67;100.00;97266.22;5038305;28;19915;-75
2022/08/28 00:26:00;;;;;;;;;;;;;;;18.55;100.00;97267.44;5056290;28;20372;-76
2022/08/28 00:28:26;;;;;;;;;;;;;;;18.53;100.00;97263.19;5056324;28;19988;-77
2022/08/28 00:30:53;;;;;;;;;;;;;;;18.53;100.00;97209.00;5039611;28;19951;-76
2022/08/28 00:33:26;;;;;;;;;;;;;;;18.51;100.00;97206.47;5039608;28;19913;-76
2022/08/28 00:35:51;;;;;;;;;;;;;;;18.56;100.00;97209.53;5034806;28;19916;-74
2022/08/28 00:38:18;;;;;;;;;;;;;;;18.53;100.00;97203.56;5056246;28;20505;-76
2022/08/28 00:40:44;;;;;;;;;;;;;;;18.42;100.00;97207.34;5056137;28;19951;-75
2022/08/28 00:43:10;;;;;;;;;;;;;;;18.42;100.00;97218.16;5039557;28;19908;-75
2022/08/28 00:45:36;;;;;;;;;;;;;;;18.36;100.00;97207.94;5039401;28;20356;-77
2022/08/28 00:48:01;;;;;;;;;;;;;;;18.30;100.00;97214.78;5056307;28;20014;-76
2022/08/28 00:50:28;;;;;;;;;;;;;;;18.28;100.00;97211.38;5039148;28;19909;-76
2022/08/28 00:52:59;;;;;;;;;;;;;;;18.26;100.00;97204.44;5039500;28;20398;-76
2022/08/28 00:55:26;;;;;;;;;;;;;;;18.30;100.00;97205.84;5039390;28;20006;-76
2022/08/28 00:57:53;;;;;;;;;;;;;;;18.34;100.00;97207.22;5036193;28;19995;-76
2022/08/28 01:00:20;;;;;;;;;;;;;;;18.49;100.00;97218.41;5039445;28;19913;-76
2022/08/28 01:02:46;;;;;;;;;;;;;;;18.41;100.00;97213.75;5055823;28;19919;-76
2022/08/28 01:05:13;;;;;;;;;;;;;;;18.37;100.00;97223.16;5055966;28;19909;-76
2022/08/28 01:07:39;;;;;;;;;;;;;;;18.36;100.00;97218.78;5055938;28;19921;-76
2022/08/28 01:10:05;;;;;;;;;;;;;;;18.33;100.00;97219.91;5055874;28;19947;-76
2022/08/28 01:12:31;;;;;;;;;;;;;;;18.30;100.00;97219.38;5038558;28;19951;-76
2022/08/28 01:14:58;;;;;;;;;;;;;;;18.22;100.00;97219.25;5035923;28;19963;-77
2022/08/28 01:17:24;;;;;;;;;;;;;;;18.16;100.00;97218.00;5038284;28;19912;-76
2022/08/28 01:19:57;;;;;;;;;;;;;;;18.16;100.00;97218.00;5035781;28;19996;-76
2022/08/28 01:22:36;;;;;;;;;;;;;;;18.08;100.00;97214.34;5036859;28;19915;-74
2022/08/28 01:25:02;;;;;;;;;;;;;;;17.94;100.00;97217.53;5052536;28;19983;-77
2022/08/28 01:27:28;;;;;;;;;;;;;;;17.95;100.00;97219.25;5034585;28;19948;-75
2022/08/28 01:29:54;;;;;;;;;;;;;;;18.03;100.00;97222.91;5035553;28;19959;-75
2022/08/28 01:32:36;;;;;;;;;;;;;;;18.19;100.00;97222.25;5052393;28;19915;-75
2022/08/28 01:35:03;;;;;;;;;;;;;;;18.18;100.00;97221.41;5030714;28;20261;-76
2022/08/28 01:37:28;;;;;;;;;;;;;;;18.19;100.00;97228.53;5052392;28;20011;-76
2022/08/28 01:39:54;;;;;;;;;;;;;;;18.11;100.00;97225.75;5052278;28;20448;-76
2022/08/28 01:42:20;;;;;;;;;;;;;;;18.07;100.00;97228.88;5032795;28;19936;-76
2022/08/28 01:44:46;;;;;;;;;;;;;;;18.06;100.00;97230.72;5035535;28;20273;-76
2022/08/28 01:47:11;;;;;;;;;;;;;;;18.00;100.00;97228.63;5035722;28;19920;-76
2022/08/28 01:49:37;;;;;;;;;;;;;;;18.04;100.00;97234.59;5035405;28;19920;-76
2022/08/28 01:52:02;;;;;;;;;;;;;;;18.01;100.00;97235.75;5053323;28;19913;-76
2022/08/28 01:54:28;;;;;;;;;;;;;;;17.99;100.00;97231.50;5052155;28;19935;-76
2022/08/28 01:56:53;;;;;;;;;;;;;;;17.99;100.00;97228.78;5052149;28;19912;-76
2022/08/28 01:59:19;;;;;;;;;;;;;;;17.91;100.00;97225.94;5035320;28;19921;-76
2022/08/28 02:01:44;;;;;;;;;;;;;;;17.84;100.00;97223.84;5035197;28;19920;-75
2022/08/28 02:04:10;;;;;;;;;;;;;;;17.81;100.00;97231.41;5035258;28;19919;-76
2022/08/28 02:06:36;;;;;;;;;;;;;;;17.82;100.00;97222.28;5035179;28;20003;-76
2022/08/28 02:09:02;;;;;;;;;;;;;;;17.81;100.00;97226.84;5051632;28;19932;-76
2022/08/28 02:11:29;;;;;;;;;;;;;;;17.76;100.00;97220.16;5035192;28;19916;-76
2022/08/28 02:13:54;;;;;;;;;;;;;;;17.70;100.00;97223.47;5033172;28;19956;-77
2022/08/28 02:16:20;;;;;;;;;;;;;;;17.54;100.00;97218.63;5031741;28;19913;-76
2022/08/28 02:18:45;;;;;;;;;;;;;;;17.45;100.00;97216.78;5034894;28;19975;-76
2022/08/28 02:21:11;;;;;;;;;;;;;;;17.44;100.00;97228.63;5031609;28;19919;-76
2022/08/28 02:23:38;;;;;;;;;;;;;;;17.46;100.00;97223.94;5051659;28;19912;-75
2022/08/28 02:26:03;;;;;;;;;;;;;;;17.38;100.00;97231.88;5034801;28;20376;-76
2022/08/28 02:28:29;;;;;;;;;;;;;;;17.39;100.00;97227.34;5034905;28;19947;-76
2022/08/28 02:30:55;;;;;;;;;;;;;;;17.39;100.00;97227.34;5031315;28;19917;-76
2022/08/28 02:33:20;;;;;;;;;;;;;;;17.30;100.00;97223.66;5034797;28;20409;-75
2022/08/28 02:35:45;;;;;;;;;;;;;;;17.24;100.00;97232.34;5051144;28;20007;-77
2022/08/28 02:38:11;;;;;;;;;;;;;;;17.22;100.00;97232.50;5034520;28;19912;-76
2022/08/28 02:40:36;;;;;;;;;;;;;;;17.23;100.00;97227.91;5034516;28;19913;-75
2022/08/28 02:43:03;;;;;;;;;;;;;;;17.24;100.00;97235.03;5034420;28;19919;-76
2022/08/28 02:45:28;;;;;;;;;;;;;;;17.27;100.00;97234.75;5051276;28;19922;-76
2022/08/28 02:47:55;;;;;;;;;;;;;;;17.27;100.00;97223.94;5034233;28;19912;-76
2022/08/28 02:50:21;;;;;;;;;;;;;;;17.20;100.00;97223.66;5034716;28;20268;-76
2022/08/28 02:52:46;;;;;;;;;;;;;;;17.23;100.00;97222.50;5033106;28;19913;-76
2022/08/28 02:55:12;;;;;;;;;;;;;;;17.28;100.00;97225.66;5050745;28;20011;-76
2022/08/28 02:57:38;;;;;;;;;;;;;;;17.18;100.00;97227.50;5031673;28;20027;-76
2022/08/28 03:00:05;;;;;;;;;;;;;;;17.19;100.00;97231.94;5032181;28;19917;-76
2022/08/28 03:02:30;;;;;;;;;;;;;;;17.14;100.00;97234.19;5034213;28;19916;-74
2022/08/28 03:04:55;;;;;;;;;;;;;;;17.11;100.00;97234.47;5034181;28;19909;-74
2022/08/28 03:07:21;;;;;;;;;;;;;;;17.07;100.00;97233.91;5034074;28;19924;-74
2022/08/28 03:09:47;;;;;;;;;;;;;;;17.05;100.00;97237.75;5050487;28;20499;-76
2022/08/28 03:12:13;;;;;;;;;;;;;;;17.06;100.00;97239.47;5033780;28;20379;-76
2022/08/28 03:14:38;;;;;;;;;;;;;;;17.14;100.00;97245.00;5033886;28;20419;-75
2022/08/28 03:17:04;;;;;;;;;;;;;;;17.14;100.00;97250.41;5033830;28;19919;-76
2022/08/28 03:19:30;;;;;;;;;;;;;;;17.20;100.00;97244.44;5050843;28;19912;-76
2022/08/28 03:21:55;;;;;;;;;;;;;;;17.20;100.00;97249.84;5032918;28;19936;-76
2022/08/28 03:24:20;;;;;;;;;;;;;;;17.17;100.00;97255.53;5050383;28;19974;-76
2022/08/28 03:26:46;;;;;;;;;;;;;;;17.18;100.00;97263.50;5033703;28;19919;-76
2022/08/28 03:29:11;;;;;;;;;;;;;;;17.17;100.00;97250.13;5033475;28;19912;-76
2022/08/28 03:31:37;;;;;;;;;;;;;;;17.26;100.00;97262.78;5033651;28;20365;-76
2022/08/28 03:34:03;;;;;;;;;;;;;;;17.29;100.00;97260.66;5033686;28;19920;-77
2022/08/28 03:36:29;;;;;;;;;;;;;;;17.29;100.00;97263.34;5030290;28;19996;-77
2022/08/28 03:38:55;;;;;;;;;;;;;;;17.21;100.00;97265.94;5033490;28;19970;-74
2022/08/28 03:41:22;;;;;;;;;;;;;;;17.25;100.00;97266.50;5033005;28;20460;-76
2022/08/28 03:43:47;;;;;;;;;;;;;;;17.31;100.00;97272.19;5050074;28;19913;-76
2022/08/28 03:46:15;;;;;;;;;;;;;;;17.33;100.00;97272.91;5033270;28;20378;-76
2022/08/28 03:48:40;;;;;;;;;;;;;;;17.32;100.00;97276.59;5033729;28;19916;-76
2022/08/28 03:51:10;;;;;;;;;;;;;;;17.24;100.00;97273.75;5033221;28;20024;-76
2022/08/28 03:53:36;;;;;;;;;;;;;;;17.21;100.00;97275.88;5030115;28;19913;-77
2022/08/28 03:56:04;;;;;;;;;;;;;;;17.08;100.00;97278.00;5033232;28;19919;-77
2022/08/28 03:58:29;;;;;;;;;;;;;;;17.10;100.00;97281.44;5029853;28;19979;-74
2022/08/28 04:00:55;;;;;;;;;;;;;;;17.09;100.00;97282.44;5033180;28;19955;-75
2022/08/28 04:03:20;;;;;;;;;;;;;;;17.12;100.00;97284.84;5033287;28;19912;-75
2022/08/28 04:05:46;;;;;;;;;;;;;;;17.11;100.00;97284.00;5050009;28;19920;-76
2022/08/28 04:08:15;;;;;;;;;;;;;;;17.03;100.00;97280.28;5050021;28;19912;-76
2022/08/28 04:10:41;;;;;;;;;;;;;;;17.12;100.00;97291.13;5033236;28;19916;-76
2022/08/28 04:13:06;;;;;;;;;;;;;;;17.11;100.00;97296.66;5049834;28;20440;-76
2022/08/28 04:15:32;;;;;;;;;;;;;;;17.18;100.00;97293.25;5031747;28;20062;-76
2022/08/28 04:17:57;;;;;;;;;;;;;;;17.19;100.00;97294.97;5049740;28;20087;-75
2022/08/28 04:20:23;;;;;;;;;;;;;;;17.22;100.00;97289.28;5049721;28;19912;-74
2022/08/28 04:22:48;;;;;;;;;;;;;;;17.21;100.00;97297.50;5033134;28;19917;-74
2022/08/28 04:25:14;;;;;;;;;;;;;;;17.25;100.00;97298.94;5032992;28;20511;-75
2022/08/28 04:27:40;;;;;;;;;;;;;;;17.30;100.00;97302.91;5032804;28;19919;-78
2022/08/28 04:30:06;;;;;;;;;;;;;;;17.33;100.00;97299.06;5049975;28;19935;-76
2022/08/28 04:32:35;;;;;;;;;;;;;;;17.40;100.00;97300.22;5032974;28;19912;-78
2022/08/28 04:35:01;;;;;;;;;;;;;;;17.48;100.00;97303.03;5032908;28;19967;-76
2022/08/28 04:37:26;;;;;;;;;;;;;;;17.53;100.00;97302.63;5034030;28;19913;-76
2022/08/28 04:39:52;;;;;;;;;;;;;;;17.59;100.00;97304.78;5029684;28;19913;-76
2022/08/28 04:42:18;;;;;;;;;;;;;;;17.72;100.00;97310.72;5032861;28;19983;-76
2022/08/28 04:44:43;;;;;;;;;;;;;;;17.73;100.00;97309.75;5033131;28;20362;-78
2022/08/28 04:47:09;;;;;;;;;;;;;;;17.78;100.00;97316.41;5031297;28;20055;-79
2022/08/28 04:49:34;;;;;;;;;;;;;;;17.91;100.00;97320.66;5029860;28;19920;-76
2022/08/28 04:52:00;;;;;;;;;;;;;;;18.02;100.00;97320.50;5032932;28;20304;-78
2022/08/28 04:54:25;;;;;;;;;;;;;;;18.06;100.00;97309.22;5035699;28;19917;-78
2022/08/28 04:56:51;;;;;;;;;;;;;;;18.15;100.00;97308.34;5053038;28;20473;-78
2022/08/28 04:59:16;;;;;;;;;;;;;;;18.26;100.00;97315.44;5036803;28;19915;-76
2022/08/28 05:01:42;;;;;;;;;;;;;;;18.40;100.00;97320.38;5053091;28;19913;-76
2022/08/28 05:04:07;;;;;;;;;;;;;;;18.55;100.00;97320.78;5036473;28;20281;-78
2022/08/28 05:06:33;;;;;;;;;;;;;;;18.62;100.00;97319.16;5053151;28;20003;-78
2022/08/28 05:08:59;;;;;;;;;;;;;;;18.64;100.00;97318.00;5036025;28;19920;-78
2022/08/28 05:11:25;;;;;;;;;;;;;;;18.72;100.00;97312.69;5053067;28;19912;-78
2022/08/28 05:13:51;;;;;;;;;;;;;;;18.89;100.00;97322.72;5052779;28;19991;-76
2022/08/28 05:16:16;;;;;;;;;;;;;;;19.03;100.00;97315.94;5036185;28;19951;-76
2022/08/28 05:18:42;;;;;;;;;;;;;;;19.15;100.00;97313.84;5036255;28;20371;-77
2022/08/28 05:21:11;;;;;;;;;;;;;;;19.33;100.00;97322.84;5036057;28;20288;-78
2022/08/28 05:23:37;;;;;;;;;;;;;;;19.60;100.00;97319.22;5036003;28;20000;-78
2022/08/28 05:26:02;;;;;;;;;;;;;;;19.78;100.00;97317.38;5035781;28;19991;-78
2022/08/28 05:28:28;;;;;;;;;;;;;;;19.86;100.00;97304.69;5036030;28;19916;-78
2022/08/28 05:30:53;;;;;;;;;;;;;;;20.26;100.00;97306.00;5035708;28;19915;-77
2022/08/28 05:33:19;;;;;;;;;;;;;;;20.87;100.00;97308.50;5035842;28;20369;-78
2022/08/28 05:35:44;;;;;;;;;;;;;;;22.60;89.92;97326.31;5052543;28;19970;-76
2022/08/28 05:38:11;;;;;;;;;;;;;;;24.57;78.59;97316.44;5035339;28;19913;-77
2022/08/28 05:40:41;;;;;;;;;;;;;;;25.68;70.19;97286.09;5032394;28;19924;-78
2022/08/28 05:43:06;;;;;;;;;;;;;;;27.32;63.76;97268.84;5035740;28;20030;-79
2022/08/28 05:45:32;;;;;;;;;;;;;;;28.85;58.63;97252.22;5035474;28;20007;-78
2022/08/28 05:47:57;;;;;;;;;;;;;;;30.02;53.88;97233.34;5035532;28;19909;-78
2022/08/28 05:50:23;;;;;;;;;;;;;;;31.04;50.48;97227.25;5052204;28;19920;-78
2022/08/28 05:52:48;;;;;;;;;;;;;;;31.82;48.26;97218.91;5035531;28;19983;-78
2022/08/28 05:55:14;;;;;;;;;;;;;;;32.17;46.11;97200.50;5035102;28;20434;-77
2022/08/28 05:57:40;;;;;;;;;;;;;;;31.26;46.93;97206.31;5035567;28;19912;-77
2022/08/28 06:00:05;;;;;;;;;;;;;;;31.22;46.64;97199.59;5035201;28;19908;-78
2022/08/28 06:02:33;;;;;;;;;;;;;;;31.04;47.45;97205.16;5035220;28;19912;-77
2022/08/28 06:04:58;;;;;;;;;;;;;;;32.59;44.78;97204.84;5032214;28;19970;-78
2022/08/28 06:07:24;;;;;;;;;;;;;;;32.86;43.30;97198.75;5051765;28;19947;-78
2022/08/28 06:09:49;;;;;;;;;;;;;;;32.36;44.92;97198.44;5031676;28;19917;-78
2022/08/28 06:12:15;;;;;;;;;;;;;;;32.95;43.71;97205.63;5034781;28;19912;-78
2022/08/28 06:14:40;;;;;;;;;;;;;;;32.46;43.91;97193.97;5031674;28;19952;-78
2022/08/28 06:17:06;;;;;;;;;;;;;;;33.74;42.59;97197.28;5034779;28;20307;-78
2022/08/28 06:19:32;;;;;;;;;;;;;;;35.21;39.91;97200.44;5034930;28;19956;-77
2022/08/28 06:21:59;;;;;;;;;;;;;;;35.86;37.96;97183.66;5051470;28;20288;-78
2022/08/28 06:24:25;;;;;;;;;;;;;;;36.41;37.33;97185.22;5032572;28;20308;-78
2022/08/28 06:26:51;;;;;;;;;;;;;;;36.81;36.05;97173.53;5031606;28;19913;-77
2022/08/28 06:29:18;;;;;;;;;;;;;;;36.43;36.64;97178.28;5051384;28;19913;-78
2022/08/28 06:31:44;;;;;;;;;;;;;;;36.89;36.28;97184.16;5035007;28;20360;-78
2022/08/28 06:34:10;;;;;;;;;;;;;;;37.42;35.15;97185.81;5051381;28;20035;-78
2022/08/28 06:36:36;;;;;;;;;;;;;;;36.22;36.39;97172.81;5034672;28;19917;-78
2022/08/28 06:39:02;;;;;;;;;;;;;;;35.87;37.31;97188.09;5034552;28;20384;-78
2022/08/28 06:41:28;;;;;;;;;;;;;;;35.39;37.95;97179.78;5034526;28;19920;-77
2022/08/28 06:43:53;;;;;;;;;;;;;;;36.02;37.55;97181.00;5051131;28;20403;-79
2022/08/28 06:46:20;;;;;;;;;;;;;;;35.99;37.36;97176.81;5034213;28;19959;-78
2022/08/28 06:48:45;;;;;;;;;;;;;;;36.36;36.66;97185.22;5034536;28;19920;-78
2022/08/28 06:51:11;;;;;;;;;;;;;;;36.72;35.89;97186.31;5050950;28;19913;-78
2022/08/28 06:53:38;;;;;;;;;;;;;;;35.87;36.93;97178.94;5034248;28;19913;-78
2022/08/28 06:56:06;;;;;;;;;;;;;;;35.94;36.96;97189.81;5034344;28;19917;-78
2022/08/28 06:58:31;;;;;;;;;;;;;;;36.33;36.25;97182.97;5034291;28;19913;-77
2022/08/28 07:01:01;;;;;;;;;;;;;;;36.13;35.76;97174.44;5051075;28;19913;-77
2022/08/28 07:03:28;;;;;;;;;;;;;;;36.27;35.82;97178.47;5034029;28;19912;-77
2022/08/28 07:05:54;;;;;;;;;;;;;;;36.74;34.27;97167.34;5050843;28;19920;-78
2022/08/28 07:08:20;;;;;;;;;;;;;;;37.01;34.34;97168.06;5050544;28;19920;-78
2022/08/28 07:10:46;;;;;;;;;;;;;;;37.17;34.04;97169.81;5034033;28;19917;-77
2022/08/28 07:13:14;;;;;;;;;;;;;;;36.94;34.12;97159.94;5031129;28;20249;-78
2022/08/28 07:15:39;;;;;;;;;;;;;;;37.84;33.40;97164.13;5033523;28;19917;-77
2022/08/28 07:18:04;;;;;;;;;;;;;;;38.43;31.83;97163.63;5033980;28;19919;-78
2022/08/28 07:20:30;;;;;;;;;;;;;;;38.45;31.62;97155.81;5033605;28;19919;-78
2022/08/28 07:22:55;;;;;;;;;;;;;;;37.43;32.67;97154.00;5033934;28;19913;-78
2022/08/28 07:25:21;;;;;;;;;;;;;;;37.54;32.70;97161.28;5033818;28;19954;-78
2022/08/28 07:27:46;;;;;;;;;;;;;;;38.26;31.52;97157.47;5032599;28;20301;-78
2022/08/28 07:30:12;;;;;;;;;;;;;;;37.36;32.67;97147.81;5050652;28;19913;-77
2022/08/28 07:32:37;;;;;;;;;;;;;;;36.72;33.92;97164.84;5032392;28;19909;-77
2022/08/28 07:35:03;;;;;;;;;;;;;;;35.61;34.58;97150.00;5050305;28;19924;-77
2022/08/28 07:37:28;;;;;;;;;;;;;;;35.26;35.33;97160.69;5033402;28;19932;-78
2022/08/28 07:39:54;;;;;;;;;;;;;;;36.72;33.37;97159.25;5050218;28;19916;-78
2022/08/28 07:45:03;;;;;;;;;;;;;;;37.73;32.13;97147.66;5050592;28;19955;-77
2022/08/28 07:47:34;;;;;;;;;;;;;;;39.09;29.79;97155.94;5033304;28;19944;-79
2022/08/28 07:50:00;;;;;;;;;;;;;;;39.19;30.10;97143.84;5033792;28;19920;-78
2022/08/28 07:52:26;;;;;;;;;;;;;;;39.79;29.32;97137.94;5033525;28;19908;-80
2022/08/28 07:54:52;;;;;;;;;;;;;;;40.37;28.85;97140.81;5049921;28;19924;-79
2022/08/28 07:57:19;;;;;;;;;;;;;;;40.63;28.48;97133.84;5050087;28;19913;-78
2022/08/28 07:59:45;;;;;;;;;;;;;;;40.14;27.97;97121.97;5049828;28;20273;-78
2022/08/28 08:02:11;;;;;;;;;;;;;;;40.28;28.96;97128.56;5049750;28;20387;-77
2022/08/28 08:04:36;;;;;;;;;;;;;;;40.90;28.15;97134.09;5049589;28;19909;-78
2022/08/28 08:07:02;;;;;;;;;;;;;;;39.81;28.69;97112.44;5032960;28;19919;-78
2022/08/28 08:09:31;;;;;;;;;;;;;;;40.44;27.67;97122.53;5032915;28;19984;-77
2022/08/28 08:11:57;;;;;;;;;;;;;;;40.64;27.67;97118.69;5048452;28;19916;-78
2022/08/28 08:14:23;;;;;;;;;;;;;;;41.05;27.10;97107.84;5050010;28;20281;-77
2022/08/28 08:16:49;;;;;;;;;;;;;;;41.19;26.68;97116.38;5031960;28;20476;-78
2022/08/28 08:19:14;;;;;;;;;;;;;;;42.22;25.93;97112.59;5031919;28;19964;-79
2022/08/28 08:21:40;;;;;;;;;;;;;;;42.48;25.27;97096.91;5032995;28;19913;-79
2022/08/28 08:24:06;;;;;;;;;;;;;;;42.21;25.52;97096.88;5033066;28;19924;-78
2022/08/28 08:26:31;;;;;;;;;;;;;;;42.31;25.92;97111.56;5033111;28;19908;-78
2022/08/28 08:28:57;;;;;;;;;;;;;;;42.06;26.10;97104.38;5036744;28;19992;-79
2022/08/28 08:31:27;;;;;;;;;;;;;;;41.39;26.68;97096.44;5037119;28;20047;-78
2022/08/28 08:33:54;;;;;;;;;;;;;;;42.48;26.07;97111.00;5036948;28;19908;-78
2022/08/28 08:36:20;;;;;;;;;;;;;;;42.99;25.61;97120.16;5037021;28;20396;-79
2022/08/28 08:38:46;;;;;;;;;;;;;;;42.13;26.41;97098.38;5034762;28;19908;-78
2022/08/28 08:41:12;;;;;;;;;;;;;;;41.80;25.96;97105.13;5046814;28;19913;-78
2022/08/28 08:43:59;;;;;;;;;;;;;;;41.58;26.13;97100.09;5053449;28;19915;-78
2022/08/28 08:46:29;;;;;;;;;;;;;;;42.61;25.76;97116.66;5033453;28;20385;-77
2022/08/28 08:48:55;;;;;;;;;;;;;;;43.68;24.54;97118.09;5036682;28;19908;-79
2022/08/28 08:51:24;;;;;;;;;;;;;;;43.99;23.93;97095.66;5053634;28;20285;-79
2022/08/28 08:54:06;;;;;;;;;;;;;;;44.03;23.57;97091.84;5053256;28;19913;-80
2022/08/28 08:56:32;;;;;;;;;;;;;;;43.89;23.92;97093.91;5053243;28;19916;-80
2022/08/28 08:59:00;;;;;;;;;;;;;;;44.45;23.47;97104.63;5035512;28;20398;-80
2022/08/28 09:01:32;;;;;;;;;;;;;;;45.00;22.87;97093.78;5053206;28;19913;-80
2022/08/28 09:04:01;;;;;;;;;;;;;;;44.15;23.78;97086.47;5053062;28;19908;-79
2022/08/28 09:06:48;;;;;;;;;;;;;;;44.49;23.23;97087.84;5053007;28;19912;-79
2022/08/28 09:09:17;;;;;;;;;;;;;;;45.00;22.53;97082.50;5036173;28;19920;-79
2022/08/28 09:11:48;;;;;;;;;;;;;;;45.44;22.55;97089.09;5052918;28;19913;-78
2022/08/28 09:14:19;;;;;;;;;;;;;;;45.15;22.89;97078.38;5052844;28;19912;-79
2022/08/28 09:16:45;;;;;;;;;;;;;;;45.28;22.46;97083.06;5052800;28;19916;-80
2022/08/28 09:19:11;;;;;;;;;;;;;;;45.50;21.86;97082.13;5052734;28;19919;-79
2022/08/28 09:21:41;;;;;;;;;;;;;;;45.60;21.22;97070.47;5032778;28;19917;-79
2022/08/28 09:24:10;;;;;;;;;;;;;;;45.69;21.37;97074.16;5035820;28;20317;-79
2022/08/28 09:26:36;;;;;;;;;;;;;;;45.67;20.86;97065.16;5032845;28;19952;-79
2022/08/28 09:29:03;;;;;;;;;;;;;;;45.92;20.91;97075.66;5035705;28;19959;-78
2022/08/28 09:31:33;;;;;;;;;;;;;;;44.91;21.04;97067.47;5035509;28;20509;-79
2022/08/28 09:34:18;;;;;;;;;;;;;;;45.16;20.60;97063.88;5036355;28;19959;-79
2022/08/28 09:36:44;;;;;;;;;;;;;;;46.80;19.34;97084.50;5052541;28;19923;-80
2022/08/28 09:39:23;;;;;;;;;;;;;;;46.54;18.81;97061.94;5035239;28;19987;-78
2022/08/28 09:44:49;;;;;;;;;;;;;;;47.40;18.88;97067.19;5053589;28;19973;-79
2022/08/28 09:47:34;;;;;;;;;;;;;;;47.68;18.12;97061.84;5036282;28;19912;-79
2022/08/28 09:50:15;;;;;;;;;;;;;;;47.24;18.27;97051.94;5052367;28;19923;-80
2022/08/28 09:52:41;;;;;;;;;;;;;;;46.44;19.12;97050.97;5034593;28;20324;-80
2022/08/28 09:55:06;;;;;;;;;;;;;;;46.71;18.94;97052.50;5052276;28;19924;-79
2022/08/28 09:57:32;;;;;;;;;;;;;;;47.05;18.18;97051.53;5051886;28;19909;-80
2022/08/28 09:59:57;;;;;;;;;;;;;;;47.08;17.61;97043.19;5035451;28;19912;-80
2022/08/28 10:02:26;;;;;;;;;;;;;;;47.09;18.23;97050.53;5035266;28;19915;-80
2022/08/28 10:04:57;;;;;;;;;;;;;;;46.94;17.67;97042.59;5035266;28;19924;-79
2022/08/28 10:07:29;;;;;;;;;;;;;;;47.63;17.28;97047.84;5052012;28;20300;-79
2022/08/28 10:09:55;;;;;;;;;;;;;;;47.35;17.44;97028.50;5051807;28;19920;-81
2022/08/28 10:12:42;;;;;;;;;;;;;;;47.52;16.93;97041.78;5051942;28;19974;-79
2022/08/28 10:15:07;;;;;;;;;;;;;;;48.00;16.76;97035.50;5032072;28;20293;-81
2022/08/28 10:17:36;;;;;;;;;;;;;;;46.50;18.09;97026.13;5050214;28;19913;-80
2022/08/28 10:20:04;;;;;;;;;;;;;;;46.05;18.62;97023.75;5051868;28;19917;-79
2022/08/28 10:22:37;;;;;;;;;;;;;;;47.51;17.49;97047.78;5051857;28;19917;-80
2022/08/28 10:25:22;;;;;;;;;;;;;;;46.33;17.75;97017.66;5031625;28;20012;-80
2022/08/28 10:27:48;;;;;;;;;;;;;;;47.90;17.04;97027.44;5050023;28;19923;-78
2022/08/28 10:30:19;;;;;;;;;;;;;;;48.25;17.00;97025.91;5051473;28;19912;-79
2022/08/28 10:32:47;;;;;;;;;;;;;;;49.25;16.07;97042.38;5034708;28;19920;-80
2022/08/28 10:35:13;;;;;;;;;;;;;;;49.47;16.21;97023.16;5051758;28;19913;-80
2022/08/28 10:37:47;;;;;;;;;;;;;;;49.01;16.84;97022.47;5051254;28;19913;-81
2022/08/28 10:40:27;;;;;;;;;;;;;;;48.72;16.67;97006.50;5051645;28;20332;-81
2022/08/28 10:43:00;;;;;;;;;;;;;;;48.14;16.90;97021.84;5034514;28;19952;-79
2022/08/28 10:45:29;;;;;;;;;;;;;;;48.12;17.15;97006.31;5034589;28;20409;-81
2022/08/28 10:48:16;;;;;;;;;;;;;;;48.67;16.79;97017.28;5051038;28;19921;-80
2022/08/28 10:50:45;;;;;;;;;;;;;;;49.62;15.90;97019.56;5049764;28;19970;-80
2022/08/28 10:53:22;;;;;;;;;;;;;;;46.83;17.62;96987.50;5034581;28;19948;-80
2022/08/28 10:56:01;;;;;;;;;;;;;;;46.35;18.39;96990.69;5034408;28;19913;-79
2022/08/28 10:58:27;;;;;;;;;;;;;;;46.63;18.07;97005.25;5035113;28;19917;-80
2022/08/28 11:00:58;;;;;;;;;;;;;;;46.75;18.25;97009.00;5033982;28;19990;-79
2022/08/28 11:03:24;;;;;;;;;;;;;;;46.78;17.60;97007.50;5051082;28;19919;-80
2022/08/28 11:06:11;;;;;;;;;;;;;;;47.44;17.24;97013.47;5033833;28;19979;-82
2022/08/28 11:08:37;;;;;;;;;;;;;;;49.45;15.72;97019.84;5050605;28;19917;-80
2022/08/28 11:14:06;;;;;;;;;;;;;;;47.25;17.30;96994.91;4996837;28;20368;-80
2022/08/28 11:16:32;;;;;;;;;;;;;;;47.60;16.74;96988.97;5050837;28;19948;-80
2022/08/28 11:18:57;;;;;;;;;;;;;;;46.71;17.82;96981.69;5051606;28;19913;-80
2022/08/28 11:24:33;;;;;;;;;;;;;;;47.97;17.07;96982.28;5010394;28;19924;-80
2022/08/28 11:39:44;;;;;;;;;;;;;;;39.62;23.34;96963.78;5011924;28;20436;-79
2022/08/28 11:42:09;;;;;;;;;;;;;;;38.80;25.00;96973.88;5014601;28;19914;-79
2022/08/28 11:44:42;;;;;;;;;;;;;;;39.11;25.04;96984.88;5050282;28;20277;-80
2022/08/28 11:47:40;;;;;;;;;;;;;;;40.62;23.91;96991.88;5050061;28;19920;-80
2022/08/28 11:50:16;;;;;;;;;;;;;;;42.33;22.34;97001.56;5017701;28;19913;-80
2022/08/28 11:52:47;;;;;;;;;;;;;;;44.22;20.35;96999.41;5033981;28;19934;-78
2022/08/28 11:55:51;;;;;;;;;;;;;;;44.95;19.74;96995.03;5032814;28;20003;-79
2022/08/28 12:01:28;;;;;;;;;;;;;;;46.26;19.43;97002.03;4976940;28;20388;-79
2022/08/28 12:03:54;;;;;;;;;;;;;;;46.60;18.84;96988.94;5024254;28;19908;-80
2022/08/28 12:06:47;;;;;;;;;;;;;;;47.46;18.08;97003.41;5033153;28;20020;-80
2022/08/28 12:12:41;;;;;;;;;;;;;;;45.06;19.75;96971.00;5028459;28;19917;-80
2022/08/28 12:15:07;;;;;;;;;;;;;;;43.39;20.36;96937.28;5009743;28;19956;-80
2022/08/28 12:17:49;;;;;;;;;;;;;;;42.37;21.43;96957.56;5046698;28;19998;-81
2022/08/28 12:20:18;;;;;;;;;;;;;;;42.64;21.84;96972.47;5050062;28;20391;-79
2022/08/28 12:22:59;;;;;;;;;;;;;;;42.76;21.66;96971.13;5032459;28;20078;-81
2022/08/28 12:25:35;;;;;;;;;;;;;;;43.96;21.39;96978.66;5032639;28;19929;-81
2022/08/28 12:28:06;;;;;;;;;;;;;;;42.91;21.86;96957.53;5033371;28;19913;-79
2022/08/28 12:30:34;;;;;;;;;;;;;;;41.19;23.40;96953.50;5030567;28;19960;-79
2022/08/28 12:33:13;;;;;;;;;;;;;;;40.27;24.57;96962.28;5029856;28;19920;-79
2022/08/28 12:35:39;;;;;;;;;;;;;;;39.29;25.87;96964.59;5049823;28;19913;-79
2022/08/28 12:38:05;;;;;;;;;;;;;;;38.37;26.03;96964.28;5029958;28;19920;-79
2022/08/28 12:40:36;;;;;;;;;;;;;;;37.50;26.81;96964.75;5032992;28;19967;-80
2022/08/28 12:43:08;;;;;;;;;;;;;;;37.25;27.12;96975.88;5050973;28;19936;-79
2022/08/28 12:45:34;;;;;;;;;;;;;;;37.08;27.52;96973.34;5046923;28;20392;-80
2022/08/28 12:48:00;;;;;;;;;;;;;;;38.46;25.60;96976.53;5050823;28;19917;-79
2022/08/28 12:50:30;;;;;;;;;;;;;;;40.00;25.24;96990.88;5031958;28;19909;-80
2022/08/28 12:52:56;;;;;;;;;;;;;;;40.86;23.22;96973.03;5029798;28;19924;-79
2022/08/28 12:55:23;;;;;;;;;;;;;;;41.40;23.11;96982.94;5033485;28;19919;-79
2022/08/28 12:57:48;;;;;;;;;;;;;;;41.64;22.38;96978.03;5033326;28;19912;-80
2022/08/28 13:00:16;;;;;;;;;;;;;;;42.24;22.08;96983.75;5032867;28;20418;-80
2022/08/28 13:02:42;;;;;;;;;;;;;;;43.35;21.62;96995.41;5033300;28;19940;-80
2022/08/28 13:05:17;;;;;;;;;;;;;;;43.67;20.98;96975.47;5049902;28;19964;-80
2022/08/28 13:07:46;;;;;;;;;;;;;;;43.87;20.51;96972.13;5029858;28;19964;-79
2022/08/28 13:10:24;;;;;;;;;;;;;;;43.60;20.59;96969.44;5032970;28;19942;-79
2022/08/28 13:12:54;;;;;;;;;;;;;;;44.17;19.56;96965.69;5051127;28;19917;-80
2022/08/28 13:15:38;;;;;;;;;;;;;;;44.29;19.46;96956.63;5035889;28;19927;-79
2022/08/28 13:18:03;;;;;;;;;;;;;;;44.30;19.10;96952.63;5053404;28;19992;-79